Main page
METAR-TAF:

METAR-TAF

Airports :

Dawson Community Airport

Glendive, Montana, United States

latitude: 47-08N, longitude: 104-48W, elevation: 2457 ft

Current weather observation

The report was made 36 minutes ago, at 01:56 UTC
Calm wind
Temperature 37°F
Humidity 81%
Pressure 29.89 in. Hg
Visibility: 10 miles
Clear sky

METAR: KGDV 210156Z AUTO 00000KT 10SM CLR 03/00 A2989 RMK AO2 SLP148 T00280000 TSNO

Time: 19:32 (02:32 UTC)

Forecast

The report was made 3 hours and 7 minutes ago, at 23:25 UTC
Forecast valid from 21 at 00 UTC to 21 at 24 UTC
Wind 6 mph from the West/Southwest
Visibility: 6 miles
Clear sky
From 21 at 1800 UTC
Wind 10 mph from the West
Visibility: 6 miles
Few clouds at a height of 20000 ft
From 21 at 2100 UTC
Wind 13 mph from the West/Northwest
Visibility: 6 miles
Few clouds at a height of 6000 ft
Scattered clouds at a height of 11000 ft

TAF: KGDV 202325Z 2100/2124 24005KT P6SM SKC FM211800 27009KT P6SM FEW200 FM212100 30011KT P6SM FEW060 SCT110

Weather observations and forecasts of more than 4000 airports (METAR and TAF reports).

The available stations are represented by yellow and red dots on the map.

Hover mouse over dot to see the name of the station.

Then click to see weather observations and forecasts.

To change the map : click on the green buttons with a black cross to zoom in, on the green button with a dash to zoom out, or on the green arrows for adjacent maps.


METAR-TAF: